sensor_id;sensor_type;location;lat;lon;timestamp;temperature;humidity
16154;DHT22;8182;55.648;13.208;2023-07-31T00:00:42;17.30;99.90
16154;DHT22;8182;55.648;13.208;2023-07-31T00:03:10;17.50;99.90
16154;DHT22;8182;55.648;13.208;2023-07-31T00:05:38;17.70;99.90
16154;DHT22;8182;55.648;13.208;2023-07-31T00:08:07;17.90;99.90
16154;DHT22;8182;55.648;13.208;2023-07-31T00:10:34;18.00;99.90
16154;DHT22;8182;55.648;13.208;2023-07-31T00:13:01;18.10;99.90
16154;DHT22;8182;55.648;13.208;2023-07-31T00:15:30;17.90;99.90
16154;DHT22;8182;55.648;13.208;2023-07-31T00:17:58;17.80;99.90
16154;DHT22;8182;55.648;13.208;2023-07-31T00:20:26;17.70;99.90
16154;DHT22;8182;55.648;13.208;2023-07-31T00:22:54;17.60;99.90
16154;DHT22;8182;55.648;13.208;2023-07-31T00:25:20;17.70;99.90
16154;DHT22;8182;55.648;13.208;2023-07-31T00:27:47;17.90;99.90
16154;DHT22;8182;55.648;13.208;2023-07-31T00:30:14;18.10;99.90
16154;DHT22;8182;55.648;13.208;2023-07-31T00:32:41;18.30;99.90
16154;DHT22;8182;55.648;13.208;2023-07-31T00:35:08;18.20;99.90
16154;DHT22;8182;55.648;13.208;2023-07-31T00:37:35;18.10;99.90
16154;DHT22;8182;55.648;13.208;2023-07-31T00:40:05;18.00;99.90
16154;DHT22;8182;55.648;13.208;2023-07-31T00:42:33;17.80;99.90
16154;DHT22;8182;55.648;13.208;2023-07-31T00:45:00;17.90;99.90
16154;DHT22;8182;55.648;13.208;2023-07-31T00:47:30;18.10;99.90
16154;DHT22;8182;55.648;13.208;2023-07-31T00:49:57;18.30;99.90
16154;DHT22;8182;55.648;13.208;2023-07-31T00:52:25;18.50;99.90
16154;DHT22;8182;55.648;13.208;2023-07-31T00:54:52;18.40;99.90
16154;DHT22;8182;55.648;13.208;2023-07-31T00:57:20;18.20;99.90
16154;DHT22;8182;55.648;13.208;2023-07-31T00:59:47;18.00;99.90
16154;DHT22;8182;55.648;13.208;2023-07-31T01:02:14;17.90;99.90
16154;DHT22;8182;55.648;13.208;2023-07-31T01:04:42;17.80;99.90
16154;DHT22;8182;55.648;13.208;2023-07-31T01:07:13;17.90;99.90
16154;DHT22;8182;55.648;13.208;2023-07-31T01:09:44;18.20;99.90
16154;DHT22;8182;55.648;13.208;2023-07-31T01:12:14;18.40;99.90
16154;DHT22;8182;55.648;13.208;2023-07-31T01:14:52;18.70;99.90
16154;DHT22;8182;55.648;13.208;2023-07-31T01:17:28;18.50;99.90
16154;DHT22;8182;55.648;13.208;2023-07-31T01:19:56;18.40;99.90
16154;DHT22;8182;55.648;13.208;2023-07-31T01:22:49;18.20;99.90
16154;DHT22;8182;55.648;13.208;2023-07-31T01:25:35;18.00;99.90
16154;DHT22;8182;55.648;13.208;2023-07-31T01:28:13;17.80;99.90
16154;DHT22;8182;55.648;13.208;2023-07-31T01:30:43;17.70;99.90
16154;DHT22;8182;55.648;13.208;2023-07-31T01:33:14;17.80;99.90
16154;DHT22;8182;55.648;13.208;2023-07-31T01:35:44;17.90;99.90
16154;DHT22;8182;55.648;13.208;2023-07-31T01:38:11;18.20;99.90
16154;DHT22;8182;55.648;13.208;2023-07-31T01:40:41;18.20;99.90
16154;DHT22;8182;55.648;13.208;2023-07-31T01:43:10;18.30;99.90
16154;DHT22;8182;55.648;13.208;2023-07-31T01:45:37;18.10;99.90
16154;DHT22;8182;55.648;13.208;2023-07-31T01:48:04;18.00;99.90
16154;DHT22;8182;55.648;13.208;2023-07-31T01:50:31;17.80;99.90
16154;DHT22;8182;55.648;13.208;2023-07-31T01:52:58;17.70;99.90
16154;DHT22;8182;55.648;13.208;2023-07-31T01:55:25;17.60;99.90
16154;DHT22;8182;55.648;13.208;2023-07-31T01:57:52;17.50;99.90
16154;DHT22;8182;55.648;13.208;2023-07-31T02:00:20;17.40;99.90
16154;DHT22;8182;55.648;13.208;2023-07-31T02:02:47;17.70;99.90
16154;DHT22;8182;55.648;13.208;2023-07-31T02:05:15;17.90;99.90
16154;DHT22;8182;55.648;13.208;2023-07-31T02:07:42;18.10;99.90
16154;DHT22;8182;55.648;13.208;2023-07-31T02:10:09;18.20;99.90
16154;DHT22;8182;55.648;13.208;2023-07-31T02:12:36;18.10;99.90
16154;DHT22;8182;55.648;13.208;2023-07-31T02:15:04;18.00;99.90
16154;DHT22;8182;55.648;13.208;2023-07-31T02:17:32;17.80;99.90
16154;DHT22;8182;55.648;13.208;2023-07-31T02:20:00;17.70;99.90
16154;DHT22;8182;55.648;13.208;2023-07-31T02:22:27;17.50;99.90
16154;DHT22;8182;55.648;13.208;2023-07-31T02:24:54;17.30;99.90
16154;DHT22;8182;55.648;13.208;2023-07-31T02:27:21;17.20;99.90
16154;DHT22;8182;55.648;13.208;2023-07-31T02:29:49;17.20;99.90
16154;DHT22;8182;55.648;13.208;2023-07-31T02:32:20;17.10;99.90
16154;DHT22;8182;55.648;13.208;2023-07-31T02:34:49;17.00;99.90
16154;DHT22;8182;55.648;13.208;2023-07-31T02:37:16;17.10;99.90
16154;DHT22;8182;55.648;13.208;2023-07-31T02:39:43;17.30;99.90
16154;DHT22;8182;55.648;13.208;2023-07-31T02:42:10;17.60;99.90
16154;DHT22;8182;55.648;13.208;2023-07-31T02:44:37;17.80;99.90
16154;DHT22;8182;55.648;13.208;2023-07-31T02:47:04;17.90;99.90
16154;DHT22;8182;55.648;13.208;2023-07-31T02:49:31;17.70;99.90
16154;DHT22;8182;55.648;13.208;2023-07-31T02:52:01;17.60;99.90
16154;DHT22;8182;55.648;13.208;2023-07-31T02:54:28;17.40;99.90
16154;DHT22;8182;55.648;13.208;2023-07-31T02:56:56;17.30;99.90
16154;DHT22;8182;55.648;13.208;2023-07-31T02:59:23;17.20;99.90
16154;DHT22;8182;55.648;13.208;2023-07-31T03:01:50;17.00;99.90
16154;DHT22;8182;55.648;13.208;2023-07-31T03:04:17;16.90;99.90
16154;DHT22;8182;55.648;13.208;2023-07-31T03:06:44;16.80;99.90
16154;DHT22;8182;55.648;13.208;2023-07-31T03:09:12;16.70;99.90
16154;DHT22;8182;55.648;13.208;2023-07-31T03:11:42;16.60;99.90
16154;DHT22;8182;55.648;13.208;2023-07-31T03:14:09;16.60;99.90
16154;DHT22;8182;55.648;13.208;2023-07-31T03:16:36;16.50;99.90
16154;DHT22;8182;55.648;13.208;2023-07-31T03:19:03;16.40;99.90
16154;DHT22;8182;55.648;13.208;2023-07-31T03:21:30;16.40;99.90
16154;DHT22;8182;55.648;13.208;2023-07-31T03:24:00;16.30;99.90
16154;DHT22;8182;55.648;13.208;2023-07-31T03:26:31;16.50;99.90
16154;DHT22;8182;55.648;13.208;2023-07-31T03:28:58;16.80;99.90
16154;DHT22;8182;55.648;13.208;2023-07-31T03:31:25;17.00;99.90
16154;DHT22;8182;55.648;13.208;2023-07-31T03:33:52;17.20;99.90
16154;DHT22;8182;55.648;13.208;2023-07-31T03:36:19;17.30;99.90
16154;DHT22;8182;55.648;13.208;2023-07-31T03:38:50;17.20;99.90
16154;DHT22;8182;55.648;13.208;2023-07-31T03:41:17;17.20;99.90
16154;DHT22;8182;55.648;13.208;2023-07-31T03:43:49;17.00;99.90
16154;DHT22;8182;55.648;13.208;2023-07-31T03:46:16;16.90;99.90
16154;DHT22;8182;55.648;13.208;2023-07-31T03:48:43;16.70;99.90
16154;DHT22;8182;55.648;13.208;2023-07-31T03:51:11;16.70;99.90
16154;DHT22;8182;55.648;13.208;2023-07-31T03:53:38;16.60;99.90
16154;DHT22;8182;55.648;13.208;2023-07-31T03:56:05;16.60;99.90
16154;DHT22;8182;55.648;13.208;2023-07-31T03:58:34;16.50;99.90
16154;DHT22;8182;55.648;13.208;2023-07-31T04:01:11;16.50;99.90
16154;DHT22;8182;55.648;13.208;2023-07-31T04:03:38;16.50;99.90
16154;DHT22;8182;55.648;13.208;2023-07-31T04:06:05;16.50;99.90
16154;DHT22;8182;55.648;13.208;2023-07-31T04:08:33;16.40;99.90
16154;DHT22;8182;55.648;13.208;2023-07-31T04:11:01;16.40;99.90
16154;DHT22;8182;55.648;13.208;2023-07-31T04:13:29;16.40;99.90
16154;DHT22;8182;55.648;13.208;2023-07-31T04:15:56;16.30;99.90
16154;DHT22;8182;55.648;13.208;2023-07-31T04:18:25;16.30;99.90
16154;DHT22;8182;55.648;13.208;2023-07-31T04:20:52;16.20;99.90
16154;DHT22;8182;55.648;13.208;2023-07-31T04:23:20;16.30;99.90
16154;DHT22;8182;55.648;13.208;2023-07-31T04:25:50;16.30;99.90
16154;DHT22;8182;55.648;13.208;2023-07-31T04:28:23;16.30;99.90
16154;DHT22;8182;55.648;13.208;2023-07-31T04:30:51;16.30;99.90
16154;DHT22;8182;55.648;13.208;2023-07-31T04:33:19;16.50;99.90
16154;DHT22;8182;55.648;13.208;2023-07-31T04:35:50;16.80;99.90
16154;DHT22;8182;55.648;13.208;2023-07-31T04:38:19;17.10;99.90
16154;DHT22;8182;55.648;13.208;2023-07-31T04:40:46;17.10;99.90
16154;DHT22;8182;55.648;13.208;2023-07-31T04:43:13;17.10;99.90
16154;DHT22;8182;55.648;13.208;2023-07-31T04:45:44;17.10;99.90
16154;DHT22;8182;55.648;13.208;2023-07-31T04:48:11;17.20;99.90
16154;DHT22;8182;55.648;13.208;2023-07-31T04:50:38;17.20;99.90
16154;DHT22;8182;55.648;13.208;2023-07-31T04:53:07;17.20;99.90
16154;DHT22;8182;55.648;13.208;2023-07-31T04:55:34;17.20;99.90
16154;DHT22;8182;55.648;13.208;2023-07-31T04:58:01;17.20;99.90
16154;DHT22;8182;55.648;13.208;2023-07-31T05:00:28;17.20;99.90
16154;DHT22;8182;55.648;13.208;2023-07-31T05:02:55;17.20;99.90
16154;DHT22;8182;55.648;13.208;2023-07-31T05:05:22;17.20;99.90
16154;DHT22;8182;55.648;13.208;2023-07-31T05:07:49;17.20;99.90
16154;DHT22;8182;55.648;13.208;2023-07-31T05:10:19;17.30;99.90
16154;DHT22;8182;55.648;13.208;2023-07-31T05:12:46;17.30;99.90
16154;DHT22;8182;55.648;13.208;2023-07-31T05:15:13;17.30;99.90
16154;DHT22;8182;55.648;13.208;2023-07-31T05:17:40;17.30;99.90
16154;DHT22;8182;55.648;13.208;2023-07-31T05:20:12;17.30;99.90
16154;DHT22;8182;55.648;13.208;2023-07-31T05:22:40;17.40;99.90
16154;DHT22;8182;55.648;13.208;2023-07-31T05:25:08;17.40;99.90
16154;DHT22;8182;55.648;13.208;2023-07-31T05:27:39;17.60;99.90
16154;DHT22;8182;55.648;13.208;2023-07-31T05:30:10;17.70;99.90
16154;DHT22;8182;55.648;13.208;2023-07-31T05:32:37;17.70;99.90
16154;DHT22;8182;55.648;13.208;2023-07-31T05:35:05;17.70;99.90
16154;DHT22;8182;55.648;13.208;2023-07-31T05:37:32;17.70;99.90
16154;DHT22;8182;55.648;13.208;2023-07-31T05:39:59;17.60;99.90
16154;DHT22;8182;55.648;13.208;2023-07-31T05:42:26;17.60;99.90
16154;DHT22;8182;55.648;13.208;2023-07-31T05:44:54;17.70;99.90
16154;DHT22;8182;55.648;13.208;2023-07-31T05:47:22;17.80;99.90
16154;DHT22;8182;55.648;13.208;2023-07-31T05:49:49;17.80;99.90
16154;DHT22;8182;55.648;13.208;2023-07-31T05:52:19;18.10;99.90
16154;DHT22;8182;55.648;13.208;2023-07-31T05:54:50;18.10;99.90
16154;DHT22;8182;55.648;13.208;2023-07-31T05:57:17;18.30;99.90
16154;DHT22;8182;55.648;13.208;2023-07-31T05:59:44;18.70;99.90
16154;DHT22;8182;55.648;13.208;2023-07-31T06:02:12;18.80;99.90
16154;DHT22;8182;55.648;13.208;2023-07-31T06:04:39;19.10;99.90
16154;DHT22;8182;55.648;13.208;2023-07-31T06:07:06;19.20;99.90
16154;DHT22;8182;55.648;13.208;2023-07-31T06:09:33;19.70;99.90
16154;DHT22;8182;55.648;13.208;2023-07-31T06:12:00;20.00;99.90
16154;DHT22;8182;55.648;13.208;2023-07-31T06:14:27;19.90;99.90
16154;DHT22;8182;55.648;13.208;2023-07-31T06:16:54;19.60;99.90
16154;DHT22;8182;55.648;13.208;2023-07-31T06:19:25;19.40;99.90
16154;DHT22;8182;55.648;13.208;2023-07-31T06:21:52;19.60;99.90
16154;DHT22;8182;55.648;13.208;2023-07-31T06:24:22;19.60;99.90
16154;DHT22;8182;55.648;13.208;2023-07-31T06:26:49;19.50;99.90
16154;DHT22;8182;55.648;13.208;2023-07-31T06:29:16;19.40;99.90
16154;DHT22;8182;55.648;13.208;2023-07-31T06:31:43;19.30;99.90
16154;DHT22;8182;55.648;13.208;2023-07-31T06:34:30;19.30;99.90
16154;DHT22;8182;55.648;13.208;2023-07-31T06:36:57;19.10;99.90
16154;DHT22;8182;55.648;13.208;2023-07-31T06:39:24;19.10;99.90
16154;DHT22;8182;55.648;13.208;2023-07-31T06:42:11;19.00;99.90
16154;DHT22;8182;55.648;13.208;2023-07-31T06:44:37;19.00;99.90
16154;DHT22;8182;55.648;13.208;2023-07-31T06:47:05;19.00;99.90
16154;DHT22;8182;55.648;13.208;2023-07-31T06:49:33;19.00;99.90
16154;DHT22;8182;55.648;13.208;2023-07-31T06:52:05;19.00;99.90
16154;DHT22;8182;55.648;13.208;2023-07-31T06:54:32;18.80;99.90
16154;DHT22;8182;55.648;13.208;2023-07-31T06:56:59;18.70;99.90
16154;DHT22;8182;55.648;13.208;2023-07-31T06:59:26;18.70;99.90
16154;DHT22;8182;55.648;13.208;2023-07-31T07:01:53;18.80;99.90
16154;DHT22;8182;55.648;13.208;2023-07-31T07:04:20;18.80;99.90
16154;DHT22;8182;55.648;13.208;2023-07-31T07:06:48;18.80;99.90
16154;DHT22;8182;55.648;13.208;2023-07-31T07:09:15;18.80;99.90
16154;DHT22;8182;55.648;13.208;2023-07-31T07:11:49;18.80;99.90
16154;DHT22;8182;55.648;13.208;2023-07-31T07:14:16;19.00;99.90
16154;DHT22;8182;55.648;13.208;2023-07-31T07:16:43;18.90;99.90
16154;DHT22;8182;55.648;13.208;2023-07-31T07:19:10;18.80;99.90
16154;DHT22;8182;55.648;13.208;2023-07-31T07:21:37;18.90;99.90
16154;DHT22;8182;55.648;13.208;2023-07-31T07:24:09;19.00;99.90
16154;DHT22;8182;55.648;13.208;2023-07-31T07:26:36;19.10;99.90
16154;DHT22;8182;55.648;13.208;2023-07-31T07:29:04;19.10;99.90
16154;DHT22;8182;55.648;13.208;2023-07-31T07:31:38;19.10;99.90
16154;DHT22;8182;55.648;13.208;2023-07-31T07:34:05;19.10;99.90
16154;DHT22;8182;55.648;13.208;2023-07-31T07:36:32;19.00;99.90
16154;DHT22;8182;55.648;13.208;2023-07-31T07:38:59;19.00;99.90
16154;DHT22;8182;55.648;13.208;2023-07-31T07:41:27;19.00;99.90
16154;DHT22;8182;55.648;13.208;2023-07-31T07:43:54;19.20;99.90
16154;DHT22;8182;55.648;13.208;2023-07-31T07:46:22;19.60;99.90
16154;DHT22;8182;55.648;13.208;2023-07-31T07:48:49;19.90;99.90
16154;DHT22;8182;55.648;13.208;2023-07-31T07:51:17;20.10;99.90
16154;DHT22;8182;55.648;13.208;2023-07-31T07:53:45;19.90;99.90
16154;DHT22;8182;55.648;13.208;2023-07-31T07:56:12;19.70;99.90
16154;DHT22;8182;55.648;13.208;2023-07-31T07:58:40;19.60;99.90
16154;DHT22;8182;55.648;13.208;2023-07-31T08:01:07;19.60;99.90
16154;DHT22;8182;55.648;13.208;2023-07-31T08:03:34;19.50;99.90
16154;DHT22;8182;55.648;13.208;2023-07-31T08:06:01;19.60;99.90
16154;DHT22;8182;55.648;13.208;2023-07-31T08:08:28;19.50;99.90
16154;DHT22;8182;55.648;13.208;2023-07-31T08:10:55;19.40;99.90
16154;DHT22;8182;55.648;13.208;2023-07-31T08:13:23;19.50;99.90
16154;DHT22;8182;55.648;13.208;2023-07-31T08:15:51;19.50;99.90
16154;DHT22;8182;55.648;13.208;2023-07-31T08:18:18;19.50;99.90
16154;DHT22;8182;55.648;13.208;2023-07-31T08:20:45;19.60;99.90
16154;DHT22;8182;55.648;13.208;2023-07-31T08:23:12;19.70;99.90
16154;DHT22;8182;55.648;13.208;2023-07-31T08:25:39;19.70;99.90
16154;DHT22;8182;55.648;13.208;2023-07-31T08:28:06;19.80;99.90
16154;DHT22;8182;55.648;13.208;2023-07-31T08:30:33;19.70;99.90
16154;DHT22;8182;55.648;13.208;2023-07-31T08:33:02;19.50;99.90
16154;DHT22;8182;55.648;13.208;2023-07-31T08:35:29;19.30;99.90
16154;DHT22;8182;55.648;13.208;2023-07-31T08:37:56;19.10;99.90
16154;DHT22;8182;55.648;13.208;2023-07-31T08:40:23;19.00;99.90
16154;DHT22;8182;55.648;13.208;2023-07-31T08:42:52;18.90;99.90
16154;DHT22;8182;55.648;13.208;2023-07-31T08:45:20;18.90;99.90
16154;DHT22;8182;55.648;13.208;2023-07-31T08:47:49;18.90;99.90
16154;DHT22;8182;55.648;13.208;2023-07-31T08:50:20;18.80;99.90
16154;DHT22;8182;55.648;13.208;2023-07-31T08:52:48;18.80;99.90
16154;DHT22;8182;55.648;13.208;2023-07-31T08:55:15;18.90;99.90
16154;DHT22;8182;55.648;13.208;2023-07-31T08:57:43;18.90;99.90
16154;DHT22;8182;55.648;13.208;2023-07-31T09:00:11;19.10;99.90
16154;DHT22;8182;55.648;13.208;2023-07-31T09:02:43;19.40;99.90
16154;DHT22;8182;55.648;13.208;2023-07-31T09:05:12;19.80;99.90
16154;DHT22;8182;55.648;13.208;2023-07-31T09:07:40;20.20;99.90
16154;DHT22;8182;55.648;13.208;2023-07-31T09:10:09;20.40;99.90
16154;DHT22;8182;55.648;13.208;2023-07-31T09:12:37;20.40;99.90
16154;DHT22;8182;55.648;13.208;2023-07-31T09:15:06;20.70;99.90
16154;DHT22;8182;55.648;13.208;2023-07-31T09:17:35;21.00;99.90
16154;DHT22;8182;55.648;13.208;2023-07-31T09:20:16;21.20;99.90
16154;DHT22;8182;55.648;13.208;2023-07-31T09:22:45;21.50;99.90
16154;DHT22;8182;55.648;13.208;2023-07-31T09:25:16;21.60;99.90
16154;DHT22;8182;55.648;13.208;2023-07-31T09:27:47;21.80;99.90
16154;DHT22;8182;55.648;13.208;2023-07-31T09:30:14;21.80;99.90
16154;DHT22;8182;55.648;13.208;2023-07-31T09:32:43;22.10;99.90
16154;DHT22;8182;55.648;13.208;2023-07-31T09:35:18;22.40;99.90
16154;DHT22;8182;55.648;13.208;2023-07-31T09:37:50;22.20;99.90
16154;DHT22;8182;55.648;13.208;2023-07-31T09:40:25;22.50;99.90
16154;DHT22;8182;55.648;13.208;2023-07-31T09:42:54;22.40;99.90
16154;DHT22;8182;55.648;13.208;2023-07-31T09:45:21;22.70;99.90
16154;DHT22;8182;55.648;13.208;2023-07-31T09:47:48;22.90;99.90
16154;DHT22;8182;55.648;13.208;2023-07-31T09:50:15;23.00;99.90
16154;DHT22;8182;55.648;13.208;2023-07-31T09:52:43;23.10;99.90
16154;DHT22;8182;55.648;13.208;2023-07-31T09:55:12;23.10;99.90
16154;DHT22;8182;55.648;13.208;2023-07-31T09:57:41;23.20;99.90
16154;DHT22;8182;55.648;13.208;2023-07-31T10:00:09;23.10;99.90
16154;DHT22;8182;55.648;13.208;2023-07-31T10:02:38;22.90;99.90
16154;DHT22;8182;55.648;13.208;2023-07-31T10:05:06;22.70;99.90
16154;DHT22;8182;55.648;13.208;2023-07-31T10:07:37;22.80;99.90
16154;DHT22;8182;55.648;13.208;2023-07-31T10:10:07;22.60;99.90
16154;DHT22;8182;55.648;13.208;2023-07-31T10:12:36;22.50;99.90
16154;DHT22;8182;55.648;13.208;2023-07-31T10:15:05;22.50;99.90
16154;DHT22;8182;55.648;13.208;2023-07-31T10:17:33;22.20;99.90
16154;DHT22;8182;55.648;13.208;2023-07-31T10:20:02;22.00;99.90
16154;DHT22;8182;55.648;13.208;2023-07-31T10:22:30;21.70;99.90
16154;DHT22;8182;55.648;13.208;2023-07-31T10:24:59;21.60;99.90
16154;DHT22;8182;55.648;13.208;2023-07-31T10:27:28;21.50;99.90
16154;DHT22;8182;55.648;13.208;2023-07-31T10:29:57;21.40;99.90
16154;DHT22;8182;55.648;13.208;2023-07-31T10:32:25;21.30;99.90
16154;DHT22;8182;55.648;13.208;2023-07-31T10:34:54;21.10;99.90
16154;DHT22;8182;55.648;13.208;2023-07-31T10:37:25;21.00;99.90
16154;DHT22;8182;55.648;13.208;2023-07-31T10:39:57;20.90;99.90
16154;DHT22;8182;55.648;13.208;2023-07-31T10:42:28;20.70;99.90
16154;DHT22;8182;55.648;13.208;2023-07-31T10:44:59;20.70;99.90
16154;DHT22;8182;55.648;13.208;2023-07-31T10:47:26;20.60;99.90
16154;DHT22;8182;55.648;13.208;2023-07-31T10:49:53;20.60;99.90
16154;DHT22;8182;55.648;13.208;2023-07-31T10:52:39;20.60;99.90
16154;DHT22;8182;55.648;13.208;2023-07-31T10:55:25;20.50;99.90
16154;DHT22;8182;55.648;13.208;2023-07-31T10:57:53;20.50;99.90
16154;DHT22;8182;55.648;13.208;2023-07-31T11:00:26;20.40;99.90
16154;DHT22;8182;55.648;13.208;2023-07-31T11:03:01;20.40;99.90
16154;DHT22;8182;55.648;13.208;2023-07-31T11:05:45;20.40;99.90
16154;DHT22;8182;55.648;13.208;2023-07-31T11:08:16;20.30;99.90
16154;DHT22;8182;55.648;13.208;2023-07-31T11:10:45;20.40;99.90
16154;DHT22;8182;55.648;13.208;2023-07-31T11:13:12;20.50;99.90
16154;DHT22;8182;55.648;13.208;2023-07-31T11:15:41;20.50;99.90
16154;DHT22;8182;55.648;13.208;2023-07-31T11:18:08;20.40;99.90
16154;DHT22;8182;55.648;13.208;2023-07-31T11:20:37;20.40;99.90
16154;DHT22;8182;55.648;13.208;2023-07-31T11:23:07;20.40;99.90
16154;DHT22;8182;55.648;13.208;2023-07-31T11:25:35;20.40;99.90
16154;DHT22;8182;55.648;13.208;2023-07-31T11:28:04;20.50;99.90
16154;DHT22;8182;55.648;13.208;2023-07-31T11:30:31;20.50;99.90
16154;DHT22;8182;55.648;13.208;2023-07-31T11:33:00;20.50;99.90
16154;DHT22;8182;55.648;13.208;2023-07-31T11:35:29;20.50;99.90
16154;DHT22;8182;55.648;13.208;2023-07-31T11:37:56;20.50;99.90
16154;DHT22;8182;55.648;13.208;2023-07-31T11:40:23;20.70;99.90
16154;DHT22;8182;55.648;13.208;2023-07-31T11:42:55;20.80;99.90
16154;DHT22;8182;55.648;13.208;2023-07-31T11:45:25;21.10;99.90
16154;DHT22;8182;55.648;13.208;2023-07-31T11:47:54;21.20;99.90
16154;DHT22;8182;55.648;13.208;2023-07-31T11:50:23;21.10;99.90
16154;DHT22;8182;55.648;13.208;2023-07-31T11:52:53;20.80;99.90
16154;DHT22;8182;55.648;13.208;2023-07-31T11:55:22;20.80;99.90
16154;DHT22;8182;55.648;13.208;2023-07-31T11:57:52;20.90;99.90
16154;DHT22;8182;55.648;13.208;2023-07-31T12:00:20;20.80;99.90
16154;DHT22;8182;55.648;13.208;2023-07-31T12:02:48;20.60;99.90
16154;DHT22;8182;55.648;13.208;2023-07-31T12:05:16;20.60;99.90
16154;DHT22;8182;55.648;13.208;2023-07-31T12:07:45;20.50;99.90
16154;DHT22;8182;55.648;13.208;2023-07-31T12:10:25;20.50;99.90
16154;DHT22;8182;55.648;13.208;2023-07-31T12:13:00;20.40;99.90
16154;DHT22;8182;55.648;13.208;2023-07-31T12:15:38;20.40;99.90
16154;DHT22;8182;55.648;13.208;2023-07-31T12:18:06;20.40;99.90
16154;DHT22;8182;55.648;13.208;2023-07-31T12:20:34;20.40;99.90
16154;DHT22;8182;55.648;13.208;2023-07-31T12:23:02;20.30;99.90
16154;DHT22;8182;55.648;13.208;2023-07-31T12:25:33;20.30;99.90
16154;DHT22;8182;55.648;13.208;2023-07-31T12:28:05;20.20;99.90
16154;DHT22;8182;55.648;13.208;2023-07-31T12:30:39;20.20;99.90
16154;DHT22;8182;55.648;13.208;2023-07-31T12:33:12;20.20;99.90
16154;DHT22;8182;55.648;13.208;2023-07-31T12:35:46;20.30;99.90
16154;DHT22;8182;55.648;13.208;2023-07-31T12:38:15;20.30;99.90
16154;DHT22;8182;55.648;13.208;2023-07-31T12:40:42;20.30;99.90
16154;DHT22;8182;55.648;13.208;2023-07-31T12:43:09;20.30;99.90
16154;DHT22;8182;55.648;13.208;2023-07-31T12:45:36;20.10;99.90
16154;DHT22;8182;55.648;13.208;2023-07-31T12:48:09;20.10;99.90
16154;DHT22;8182;55.648;13.208;2023-07-31T12:50:37;19.90;99.90
16154;DHT22;8182;55.648;13.208;2023-07-31T12:53:04;19.90;99.90
16154;DHT22;8182;55.648;13.208;2023-07-31T12:55:33;19.70;99.90
16154;DHT22;8182;55.648;13.208;2023-07-31T12:58:02;19.70;99.90
16154;DHT22;8182;55.648;13.208;2023-07-31T13:00:30;19.70;99.90
16154;DHT22;8182;55.648;13.208;2023-07-31T13:03:06;19.70;99.90
16154;DHT22;8182;55.648;13.208;2023-07-31T13:05:33;19.70;99.90
16154;DHT22;8182;55.648;13.208;2023-07-31T13:08:00;19.70;99.90
16154;DHT22;8182;55.648;13.208;2023-07-31T13:10:30;19.60;99.90
16154;DHT22;8182;55.648;13.208;2023-07-31T13:12:59;19.60;99.90
16154;DHT22;8182;55.648;13.208;2023-07-31T13:15:26;19.50;99.90
16154;DHT22;8182;55.648;13.208;2023-07-31T13:17:56;19.40;99.90
16154;DHT22;8182;55.648;13.208;2023-07-31T13:20:23;19.30;99.90
16154;DHT22;8182;55.648;13.208;2023-07-31T13:22:50;19.30;99.90
16154;DHT22;8182;55.648;13.208;2023-07-31T13:25:17;19.30;99.90
16154;DHT22;8182;55.648;13.208;2023-07-31T13:27:44;19.30;99.90
16154;DHT22;8182;55.648;13.208;2023-07-31T13:30:12;19.20;99.90
16154;DHT22;8182;55.648;13.208;2023-07-31T13:32:39;19.10;99.90
16154;DHT22;8182;55.648;13.208;2023-07-31T13:35:07;19.00;99.90
16154;DHT22;8182;55.648;13.208;2023-07-31T13:37:36;18.90;99.90
16154;DHT22;8182;55.648;13.208;2023-07-31T13:40:04;18.90;99.90
16154;DHT22;8182;55.648;13.208;2023-07-31T13:42:32;18.90;99.90
16154;DHT22;8182;55.648;13.208;2023-07-31T13:44:58;18.90;99.90
16154;DHT22;8182;55.648;13.208;2023-07-31T13:47:27;18.80;99.90
16154;DHT22;8182;55.648;13.208;2023-07-31T13:49:54;18.80;99.90
16154;DHT22;8182;55.648;13.208;2023-07-31T13:52:29;18.80;99.90
16154;DHT22;8182;55.648;13.208;2023-07-31T13:54:56;18.80;99.90
16154;DHT22;8182;55.648;13.208;2023-07-31T13:57:23;18.80;99.90
16154;DHT22;8182;55.648;13.208;2023-07-31T13:59:50;18.80;99.90
16154;DHT22;8182;55.648;13.208;2023-07-31T14:02:17;18.90;99.90
16154;DHT22;8182;55.648;13.208;2023-07-31T14:04:45;19.00;99.90
16154;DHT22;8182;55.648;13.208;2023-07-31T14:07:15;19.00;99.90
16154;DHT22;8182;55.648;13.208;2023-07-31T14:09:43;19.00;99.90
16154;DHT22;8182;55.648;13.208;2023-07-31T14:12:11;19.00;99.90
16154;DHT22;8182;55.648;13.208;2023-07-31T14:14:37;19.00;99.90
16154;DHT22;8182;55.648;13.208;2023-07-31T14:17:05;19.00;99.90
16154;DHT22;8182;55.648;13.208;2023-07-31T14:19:32;19.00;99.90
16154;DHT22;8182;55.648;13.208;2023-07-31T14:22:00;18.90;99.90
16154;DHT22;8182;55.648;13.208;2023-07-31T14:24:28;18.90;99.90
16154;DHT22;8182;55.648;13.208;2023-07-31T14:26:55;18.80;99.90
16154;DHT22;8182;55.648;13.208;2023-07-31T14:29:22;18.70;99.90
16154;DHT22;8182;55.648;13.208;2023-07-31T14:31:49;18.50;99.90
16154;DHT22;8182;55.648;13.208;2023-07-31T14:34:16;18.40;99.90
16154;DHT22;8182;55.648;13.208;2023-07-31T14:36:43;18.30;99.90
16154;DHT22;8182;55.648;13.208;2023-07-31T14:39:13;18.00;99.90
16154;DHT22;8182;55.648;13.208;2023-07-31T14:41:40;17.80;99.90
16154;DHT22;8182;55.648;13.208;2023-07-31T14:44:07;17.80;99.90
16154;DHT22;8182;55.648;13.208;2023-07-31T14:46:34;17.60;99.90
16154;DHT22;8182;55.648;13.208;2023-07-31T14:49:01;17.70;99.90
16154;DHT22;8182;55.648;13.208;2023-07-31T14:51:28;17.70;99.90
16154;DHT22;8182;55.648;13.208;2023-07-31T14:53:55;17.90;99.90
16154;DHT22;8182;55.648;13.208;2023-07-31T14:56:23;17.90;99.90
16154;DHT22;8182;55.648;13.208;2023-07-31T14:58:52;18.00;99.90
16154;DHT22;8182;55.648;13.208;2023-07-31T15:01:19;18.00;99.90
16154;DHT22;8182;55.648;13.208;2023-07-31T15:03:46;18.20;99.90
16154;DHT22;8182;55.648;13.208;2023-07-31T15:06:16;18.30;99.90
16154;DHT22;8182;55.648;13.208;2023-07-31T15:08:43;18.30;99.90
16154;DHT22;8182;55.648;13.208;2023-07-31T15:11:10;18.40;99.90
16154;DHT22;8182;55.648;13.208;2023-07-31T15:13:39;18.30;99.90
16154;DHT22;8182;55.648;13.208;2023-07-31T15:16:06;18.40;99.90
16154;DHT22;8182;55.648;13.208;2023-07-31T15:18:32;18.30;99.90
16154;DHT22;8182;55.648;13.208;2023-07-31T15:20:59;18.40;99.90
16154;DHT22;8182;55.648;13.208;2023-07-31T15:23:26;18.40;99.90
16154;DHT22;8182;55.648;13.208;2023-07-31T15:25:53;18.40;99.90
16154;DHT22;8182;55.648;13.208;2023-07-31T15:28:20;18.40;99.90
16154;DHT22;8182;55.648;13.208;2023-07-31T15:30:48;18.40;99.90
16154;DHT22;8182;55.648;13.208;2023-07-31T15:33:15;18.40;99.90
16154;DHT22;8182;55.648;13.208;2023-07-31T15:35:43;18.40;99.90
16154;DHT22;8182;55.648;13.208;2023-07-31T15:38:13;18.40;99.90